sensor_id;sensor_type;location;lat;lon;timestamp;P1;durP1;ratioP1;P2;durP2;ratioP2
11735;SDS011;5924;51.398;7.088;2022-10-16T00:01:05;2.20;;;1.97;;
11735;SDS011;5924;51.398;7.088;2022-10-16T00:03:36;2.10;;;1.60;;
11735;SDS011;5924;51.398;7.088;2022-10-16T00:06:03;6.63;;;2.37;;
11735;SDS011;5924;51.398;7.088;2022-10-16T00:08:29;2.00;;;1.90;;
11735;SDS011;5924;51.398;7.088;2022-10-16T00:10:59;4.83;;;1.77;;
11735;SDS011;5924;51.398;7.088;2022-10-16T00:13:36;1.93;;;1.83;;
11735;SDS011;5924;51.398;7.088;2022-10-16T00:16:03;4.00;;;2.27;;
11735;SDS011;5924;51.398;7.088;2022-10-16T00:18:30;1.80;;;1.80;;
11735;SDS011;5924;51.398;7.088;2022-10-16T00:21:00;1.80;;;1.80;;
11735;SDS011;5924;51.398;7.088;2022-10-16T00:23:28;2.30;;;1.80;;
11735;SDS011;5924;51.398;7.088;2022-10-16T00:25:54;2.57;;;1.37;;
11735;SDS011;5924;51.398;7.088;2022-10-16T00:28:26;1.63;;;1.53;;
11735;SDS011;5924;51.398;7.088;2022-10-16T00:30:52;2.30;;;1.30;;
11735;SDS011;5924;51.398;7.088;2022-10-16T00:33:18;1.40;;;1.40;;
11735;SDS011;5924;51.398;7.088;2022-10-16T00:35:44;1.63;;;1.53;;
11735;SDS011;5924;51.398;7.088;2022-10-16T00:38:09;4.13;;;1.70;;
11735;SDS011;5924;51.398;7.088;2022-10-16T00:40:35;1.50;;;1.43;;
11735;SDS011;5924;51.398;7.088;2022-10-16T00:43:01;5.00;;;2.10;;
11735;SDS011;5924;51.398;7.088;2022-10-16T00:45:28;1.47;;;1.37;;
11735;SDS011;5924;51.398;7.088;2022-10-16T00:47:54;1.53;;;1.53;;
11735;SDS011;5924;51.398;7.088;2022-10-16T00:50:28;2.93;;;1.40;;
11735;SDS011;5924;51.398;7.088;2022-10-16T00:52:56;1.07;;;1.07;;
11735;SDS011;5924;51.398;7.088;2022-10-16T00:55:24;2.60;;;1.40;;
11735;SDS011;5924;51.398;7.088;2022-10-16T00:57:50;1.10;;;1.10;;
11735;SDS011;5924;51.398;7.088;2022-10-16T01:00:21;3.63;;;1.57;;
11735;SDS011;5924;51.398;7.088;2022-10-16T01:02:56;1.70;;;1.60;;
11735;SDS011;5924;51.398;7.088;2022-10-16T01:05:23;1.73;;;1.33;;
11735;SDS011;5924;51.398;7.088;2022-10-16T01:13:06;1.07;;;1.07;;
11735;SDS011;5924;51.398;7.088;2022-10-16T01:16:05;1.13;;;0.97;;
11735;SDS011;5924;51.398;7.088;2022-10-16T01:18:50;1.53;;;1.13;;
11735;SDS011;5924;51.398;7.088;2022-10-16T01:21:23;1.30;;;1.30;;
11735;SDS011;5924;51.398;7.088;2022-10-16T01:29:39;1.37;;;1.10;;
11735;SDS011;5924;51.398;7.088;2022-10-16T01:40:17;4.53;;;1.00;;
11735;SDS011;5924;51.398;7.088;2022-10-16T01:42:46;1.07;;;1.07;;
11735;SDS011;5924;51.398;7.088;2022-10-16T01:45:17;1.10;;;1.10;;
11735;SDS011;5924;51.398;7.088;2022-10-16T01:47:45;1.67;;;1.57;;
11735;SDS011;5924;51.398;7.088;2022-10-16T01:50:13;2.10;;;1.90;;
11735;SDS011;5924;51.398;7.088;2022-10-16T01:52:42;2.53;;;1.50;;
11735;SDS011;5924;51.398;7.088;2022-10-16T01:55:12;1.60;;;1.50;;
11735;SDS011;5924;51.398;7.088;2022-10-16T01:57:44;1.60;;;1.33;;
11735;SDS011;5924;51.398;7.088;2022-10-16T02:00:13;2.13;;;1.90;;
11735;SDS011;5924;51.398;7.088;2022-10-16T02:02:42;3.90;;;2.17;;
11735;SDS011;5924;51.398;7.088;2022-10-16T02:07:49;3.60;;;1.37;;
11735;SDS011;5924;51.398;7.088;2022-10-16T02:10:15;2.30;;;2.03;;
11735;SDS011;5924;51.398;7.088;2022-10-16T02:12:43;1.50;;;1.50;;
11735;SDS011;5924;51.398;7.088;2022-10-16T02:15:13;1.90;;;1.80;;
11735;SDS011;5924;51.398;7.088;2022-10-16T02:17:38;1.30;;;1.30;;
11735;SDS011;5924;51.398;7.088;2022-10-16T02:20:04;1.47;;;1.47;;
11735;SDS011;5924;51.398;7.088;2022-10-16T02:22:34;2.77;;;1.80;;
11735;SDS011;5924;51.398;7.088;2022-10-16T02:25:10;1.93;;;1.70;;
11735;SDS011;5924;51.398;7.088;2022-10-16T02:27:49;3.17;;;1.50;;
11735;SDS011;5924;51.398;7.088;2022-10-16T02:30:45;1.37;;;1.37;;
11735;SDS011;5924;51.398;7.088;2022-10-16T02:33:15;1.57;;;1.47;;
11735;SDS011;5924;51.398;7.088;2022-10-16T02:35:43;1.40;;;1.40;;
11735;SDS011;5924;51.398;7.088;2022-10-16T02:38:11;2.20;;;1.47;;
11735;SDS011;5924;51.398;7.088;2022-10-16T02:40:38;1.63;;;1.53;;
11735;SDS011;5924;51.398;7.088;2022-10-16T02:43:04;1.40;;;1.37;;
11735;SDS011;5924;51.398;7.088;2022-10-16T02:45:30;1.17;;;1.17;;
11735;SDS011;5924;51.398;7.088;2022-10-16T02:47:56;2.70;;;1.33;;
11735;SDS011;5924;51.398;7.088;2022-10-16T02:50:22;2.10;;;1.20;;
11735;SDS011;5924;51.398;7.088;2022-10-16T02:52:49;1.40;;;1.30;;
11735;SDS011;5924;51.398;7.088;2022-10-16T02:55:14;1.63;;;1.20;;
11735;SDS011;5924;51.398;7.088;2022-10-16T02:57:40;1.60;;;1.60;;
11735;SDS011;5924;51.398;7.088;2022-10-16T03:00:06;1.20;;;1.10;;
11735;SDS011;5924;51.398;7.088;2022-10-16T03:02:34;1.10;;;1.10;;
11735;SDS011;5924;51.398;7.088;2022-10-16T03:05:00;1.30;;;0.90;;
11735;SDS011;5924;51.398;7.088;2022-10-16T03:07:26;1.90;;;1.40;;
11735;SDS011;5924;51.398;7.088;2022-10-16T03:09:51;1.00;;;1.00;;
11735;SDS011;5924;51.398;7.088;2022-10-16T03:12:17;1.53;;;1.10;;
11735;SDS011;5924;51.398;7.088;2022-10-16T03:14:42;4.73;;;1.20;;
11735;SDS011;5924;51.398;7.088;2022-10-16T03:17:08;1.13;;;1.13;;
11735;SDS011;5924;51.398;7.088;2022-10-16T03:19:34;1.33;;;1.33;;
11735;SDS011;5924;51.398;7.088;2022-10-16T03:22:00;1.30;;;1.30;;
11735;SDS011;5924;51.398;7.088;2022-10-16T03:24:26;2.30;;;1.10;;
11735;SDS011;5924;51.398;7.088;2022-10-16T03:26:52;1.60;;;1.60;;
11735;SDS011;5924;51.398;7.088;2022-10-16T03:29:17;1.27;;;1.27;;
11735;SDS011;5924;51.398;7.088;2022-10-16T03:31:43;1.30;;;1.30;;
11735;SDS011;5924;51.398;7.088;2022-10-16T03:34:08;1.13;;;1.13;;
11735;SDS011;5924;51.398;7.088;2022-10-16T03:36:34;1.87;;;1.27;;
11735;SDS011;5924;51.398;7.088;2022-10-16T03:39:00;1.73;;;1.43;;
11735;SDS011;5924;51.398;7.088;2022-10-16T03:41:25;1.03;;;1.00;;
11735;SDS011;5924;51.398;7.088;2022-10-16T03:43:51;0.90;;;0.90;;
11735;SDS011;5924;51.398;7.088;2022-10-16T03:46:16;1.13;;;1.13;;
11735;SDS011;5924;51.398;7.088;2022-10-16T03:48:42;2.63;;;1.20;;
11735;SDS011;5924;51.398;7.088;2022-10-16T03:51:08;1.60;;;1.60;;
11735;SDS011;5924;51.398;7.088;2022-10-16T03:53:33;0.90;;;0.90;;
11735;SDS011;5924;51.398;7.088;2022-10-16T03:55:59;1.27;;;1.17;;
11735;SDS011;5924;51.398;7.088;2022-10-16T03:58:25;1.30;;;1.30;;
11735;SDS011;5924;51.398;7.088;2022-10-16T04:00:50;2.87;;;1.23;;
11735;SDS011;5924;51.398;7.088;2022-10-16T04:03:16;1.10;;;1.10;;
11735;SDS011;5924;51.398;7.088;2022-10-16T04:05:43;1.13;;;1.13;;
11735;SDS011;5924;51.398;7.088;2022-10-16T04:08:09;1.40;;;1.30;;
11735;SDS011;5924;51.398;7.088;2022-10-16T04:10:35;1.50;;;1.50;;
11735;SDS011;5924;51.398;7.088;2022-10-16T04:13:01;1.60;;;1.50;;
11735;SDS011;5924;51.398;7.088;2022-10-16T04:15:26;1.23;;;1.23;;
11735;SDS011;5924;51.398;7.088;2022-10-16T04:17:52;1.23;;;1.20;;
11735;SDS011;5924;51.398;7.088;2022-10-16T04:20:18;1.23;;;1.23;;
11735;SDS011;5924;51.398;7.088;2022-10-16T04:22:44;1.10;;;1.10;;
11735;SDS011;5924;51.398;7.088;2022-10-16T04:25:10;1.20;;;1.20;;
11735;SDS011;5924;51.398;7.088;2022-10-16T04:27:36;3.60;;;1.40;;
11735;SDS011;5924;51.398;7.088;2022-10-16T04:30:03;1.60;;;1.47;;
11735;SDS011;5924;51.398;7.088;2022-10-16T04:32:29;2.67;;;1.40;;
11735;SDS011;5924;51.398;7.088;2022-10-16T04:34:55;2.20;;;1.37;;
11735;SDS011;5924;51.398;7.088;2022-10-16T04:37:26;2.30;;;2.10;;
11735;SDS011;5924;51.398;7.088;2022-10-16T04:39:53;1.10;;;1.10;;
11735;SDS011;5924;51.398;7.088;2022-10-16T04:42:19;2.10;;;1.00;;
11735;SDS011;5924;51.398;7.088;2022-10-16T04:44:45;1.00;;;1.00;;
11735;SDS011;5924;51.398;7.088;2022-10-16T04:47:11;1.23;;;1.20;;
11735;SDS011;5924;51.398;7.088;2022-10-16T04:49:37;1.50;;;1.40;;
11735;SDS011;5924;51.398;7.088;2022-10-16T04:52:03;1.10;;;1.00;;
11735;SDS011;5924;51.398;7.088;2022-10-16T04:54:29;1.03;;;1.03;;
11735;SDS011;5924;51.398;7.088;2022-10-16T04:56:54;2.37;;;1.33;;
11735;SDS011;5924;51.398;7.088;2022-10-16T04:59:20;1.43;;;1.43;;
11735;SDS011;5924;51.398;7.088;2022-10-16T05:01:47;1.40;;;1.20;;
11735;SDS011;5924;51.398;7.088;2022-10-16T05:04:12;1.20;;;1.20;;
11735;SDS011;5924;51.398;7.088;2022-10-16T05:06:39;1.77;;;1.00;;
11735;SDS011;5924;51.398;7.088;2022-10-16T05:09:05;1.27;;;1.27;;
11735;SDS011;5924;51.398;7.088;2022-10-16T05:11:31;1.27;;;1.27;;
11735;SDS011;5924;51.398;7.088;2022-10-16T05:13:57;1.40;;;1.37;;
11735;SDS011;5924;51.398;7.088;2022-10-16T05:16:23;1.60;;;1.60;;
11735;SDS011;5924;51.398;7.088;2022-10-16T05:18:48;1.50;;;0.90;;
11735;SDS011;5924;51.398;7.088;2022-10-16T05:21:14;12.70;;;1.53;;
11735;SDS011;5924;51.398;7.088;2022-10-16T05:23:40;4.77;;;1.50;;
11735;SDS011;5924;51.398;7.088;2022-10-16T05:26:05;1.10;;;1.10;;
11735;SDS011;5924;51.398;7.088;2022-10-16T05:28:31;1.30;;;1.20;;
11735;SDS011;5924;51.398;7.088;2022-10-16T05:30:56;1.00;;;1.00;;
11735;SDS011;5924;51.398;7.088;2022-10-16T05:33:23;3.90;;;1.23;;
11735;SDS011;5924;51.398;7.088;2022-10-16T05:35:50;1.30;;;1.30;;
11735;SDS011;5924;51.398;7.088;2022-10-16T05:38:16;1.53;;;1.43;;
11735;SDS011;5924;51.398;7.088;2022-10-16T05:40:43;1.97;;;1.97;;
11735;SDS011;5924;51.398;7.088;2022-10-16T05:43:15;2.20;;;1.30;;
11735;SDS011;5924;51.398;7.088;2022-10-16T05:45:40;1.47;;;1.43;;
11735;SDS011;5924;51.398;7.088;2022-10-16T05:48:06;1.37;;;1.20;;
11735;SDS011;5924;51.398;7.088;2022-10-16T05:50:31;1.43;;;1.43;;
11735;SDS011;5924;51.398;7.088;2022-10-16T05:52:57;3.13;;;2.00;;
11735;SDS011;5924;51.398;7.088;2022-10-16T05:55:23;5.30;;;1.47;;
11735;SDS011;5924;51.398;7.088;2022-10-16T05:57:48;1.70;;;1.67;;
11735;SDS011;5924;51.398;7.088;2022-10-16T06:00:14;1.57;;;1.57;;
11735;SDS011;5924;51.398;7.088;2022-10-16T06:02:39;1.37;;;1.37;;
11735;SDS011;5924;51.398;7.088;2022-10-16T06:05:05;2.10;;;1.60;;
11735;SDS011;5924;51.398;7.088;2022-10-16T06:07:33;1.50;;;1.40;;
11735;SDS011;5924;51.398;7.088;2022-10-16T06:10:00;1.10;;;1.10;;
11735;SDS011;5924;51.398;7.088;2022-10-16T06:12:26;2.20;;;1.50;;
11735;SDS011;5924;51.398;7.088;2022-10-16T06:14:52;7.00;;;1.67;;
11735;SDS011;5924;51.398;7.088;2022-10-16T06:17:17;1.30;;;1.30;;
11735;SDS011;5924;51.398;7.088;2022-10-16T06:19:43;3.90;;;1.50;;
11735;SDS011;5924;51.398;7.088;2022-10-16T06:22:09;1.67;;;1.30;;
11735;SDS011;5924;51.398;7.088;2022-10-16T06:24:34;1.60;;;1.60;;
11735;SDS011;5924;51.398;7.088;2022-10-16T06:27:00;1.90;;;1.80;;
11735;SDS011;5924;51.398;7.088;2022-10-16T06:29:26;1.90;;;1.90;;
11735;SDS011;5924;51.398;7.088;2022-10-16T06:31:51;1.73;;;1.73;;
11735;SDS011;5924;51.398;7.088;2022-10-16T06:34:17;1.40;;;1.40;;
11735;SDS011;5924;51.398;7.088;2022-10-16T06:36:43;1.67;;;1.40;;
11735;SDS011;5924;51.398;7.088;2022-10-16T06:39:09;1.70;;;1.60;;
11735;SDS011;5924;51.398;7.088;2022-10-16T06:41:34;1.73;;;1.70;;
11735;SDS011;5924;51.398;7.088;2022-10-16T06:44:00;3.33;;;1.67;;
11735;SDS011;5924;51.398;7.088;2022-10-16T06:46:26;1.53;;;1.53;;
11735;SDS011;5924;51.398;7.088;2022-10-16T06:48:53;1.60;;;1.50;;
11735;SDS011;5924;51.398;7.088;2022-10-16T06:51:19;1.73;;;1.73;;
11735;SDS011;5924;51.398;7.088;2022-10-16T06:53:48;1.30;;;1.30;;
11735;SDS011;5924;51.398;7.088;2022-10-16T06:56:25;1.80;;;1.80;;
11735;SDS011;5924;51.398;7.088;2022-10-16T06:58:51;1.80;;;1.80;;
11735;SDS011;5924;51.398;7.088;2022-10-16T07:01:19;1.33;;;1.33;;
11735;SDS011;5924;51.398;7.088;2022-10-16T07:03:47;1.73;;;1.73;;
11735;SDS011;5924;51.398;7.088;2022-10-16T07:06:14;1.40;;;1.40;;
11735;SDS011;5924;51.398;7.088;2022-10-16T07:08:42;3.40;;;1.40;;
11735;SDS011;5924;51.398;7.088;2022-10-16T07:11:10;1.30;;;1.30;;
11735;SDS011;5924;51.398;7.088;2022-10-16T07:13:38;2.63;;;1.40;;
11735;SDS011;5924;51.398;7.088;2022-10-16T07:16:05;1.70;;;1.37;;
11735;SDS011;5924;51.398;7.088;2022-10-16T07:18:31;1.90;;;1.80;;
11735;SDS011;5924;51.398;7.088;2022-10-16T07:21:04;2.20;;;1.60;;
11735;SDS011;5924;51.398;7.088;2022-10-16T07:23:31;1.77;;;1.63;;
11735;SDS011;5924;51.398;7.088;2022-10-16T07:25:57;1.80;;;1.70;;
11735;SDS011;5924;51.398;7.088;2022-10-16T07:28:22;1.77;;;1.70;;
11735;SDS011;5924;51.398;7.088;2022-10-16T07:30:48;2.30;;;1.60;;
11735;SDS011;5924;51.398;7.088;2022-10-16T07:33:14;6.90;;;1.50;;
11735;SDS011;5924;51.398;7.088;2022-10-16T07:35:52;1.30;;;1.30;;
11735;SDS011;5924;51.398;7.088;2022-10-16T07:38:19;3.20;;;1.53;;
11735;SDS011;5924;51.398;7.088;2022-10-16T07:40:45;1.70;;;1.70;;
11735;SDS011;5924;51.398;7.088;2022-10-16T07:43:11;2.93;;;1.50;;
11735;SDS011;5924;51.398;7.088;2022-10-16T07:45:38;1.77;;;1.77;;
11735;SDS011;5924;51.398;7.088;2022-10-16T07:48:15;2.07;;;1.97;;
11735;SDS011;5924;51.398;7.088;2022-10-16T07:50:41;1.30;;;1.23;;
11735;SDS011;5924;51.398;7.088;2022-10-16T07:53:07;2.20;;;1.40;;
11735;SDS011;5924;51.398;7.088;2022-10-16T07:55:33;3.87;;;1.50;;
11735;SDS011;5924;51.398;7.088;2022-10-16T07:57:59;1.60;;;1.60;;
11735;SDS011;5924;51.398;7.088;2022-10-16T08:00:25;3.60;;;1.27;;
11735;SDS011;5924;51.398;7.088;2022-10-16T08:02:50;1.57;;;1.47;;
11735;SDS011;5924;51.398;7.088;2022-10-16T08:05:16;4.37;;;1.80;;
11735;SDS011;5924;51.398;7.088;2022-10-16T08:07:41;1.30;;;1.30;;
11735;SDS011;5924;51.398;7.088;2022-10-16T08:10:11;1.47;;;1.37;;
11735;SDS011;5924;51.398;7.088;2022-10-16T08:12:42;1.93;;;1.83;;
11735;SDS011;5924;51.398;7.088;2022-10-16T08:15:07;1.53;;;1.53;;
11735;SDS011;5924;51.398;7.088;2022-10-16T08:17:34;2.30;;;2.17;;
11735;SDS011;5924;51.398;7.088;2022-10-16T08:19:59;4.37;;;1.80;;
11735;SDS011;5924;51.398;7.088;2022-10-16T08:22:25;4.03;;;1.87;;
11735;SDS011;5924;51.398;7.088;2022-10-16T08:24:51;1.70;;;1.70;;
11735;SDS011;5924;51.398;7.088;2022-10-16T08:27:17;1.40;;;1.40;;
11735;SDS011;5924;51.398;7.088;2022-10-16T08:29:42;4.57;;;2.00;;
11735;SDS011;5924;51.398;7.088;2022-10-16T08:32:08;3.17;;;1.43;;
11735;SDS011;5924;51.398;7.088;2022-10-16T08:34:33;1.53;;;1.33;;
11735;SDS011;5924;51.398;7.088;2022-10-16T08:36:59;1.67;;;1.60;;
11735;SDS011;5924;51.398;7.088;2022-10-16T08:39:25;1.40;;;1.40;;
11735;SDS011;5924;51.398;7.088;2022-10-16T08:41:56;1.43;;;1.37;;
11735;SDS011;5924;51.398;7.088;2022-10-16T08:47:46;1.20;;;1.20;;
11735;SDS011;5924;51.398;7.088;2022-10-16T08:50:17;1.20;;;1.20;;
11735;SDS011;5924;51.398;7.088;2022-10-16T08:52:49;1.10;;;1.10;;
11735;SDS011;5924;51.398;7.088;2022-10-16T08:55:23;1.63;;;1.30;;
11735;SDS011;5924;51.398;7.088;2022-10-16T08:58:14;1.37;;;0.90;;
11735;SDS011;5924;51.398;7.088;2022-10-16T09:00:41;1.87;;;1.30;;
11735;SDS011;5924;51.398;7.088;2022-10-16T09:06:29;2.27;;;1.07;;
11735;SDS011;5924;51.398;7.088;2022-10-16T09:14:46;1.57;;;1.17;;
11735;SDS011;5924;51.398;7.088;2022-10-16T09:17:41;2.70;;;1.50;;
11735;SDS011;5924;51.398;7.088;2022-10-16T09:23:27;1.00;;;1.00;;
11735;SDS011;5924;51.398;7.088;2022-10-16T09:25:55;1.17;;;1.17;;
11735;SDS011;5924;51.398;7.088;2022-10-16T09:28:23;2.40;;;1.10;;
11735;SDS011;5924;51.398;7.088;2022-10-16T09:30:49;1.17;;;1.10;;
11735;SDS011;5924;51.398;7.088;2022-10-16T09:33:15;7.20;;;0.90;;
11735;SDS011;5924;51.398;7.088;2022-10-16T09:35:44;1.23;;;1.20;;
11735;SDS011;5924;51.398;7.088;2022-10-16T09:38:32;1.90;;;1.07;;
11735;SDS011;5924;51.398;7.088;2022-10-16T09:41:00;1.43;;;0.87;;
11735;SDS011;5924;51.398;7.088;2022-10-16T09:43:32;3.67;;;0.80;;
11735;SDS011;5924;51.398;7.088;2022-10-16T09:46:06;3.80;;;1.10;;
11735;SDS011;5924;51.398;7.088;2022-10-16T09:48:37;0.90;;;0.90;;
11735;SDS011;5924;51.398;7.088;2022-10-16T09:51:19;1.70;;;1.10;;
11735;SDS011;5924;51.398;7.088;2022-10-16T09:56:34;2.40;;;1.10;;
11735;SDS011;5924;51.398;7.088;2022-10-16T09:59:20;1.70;;;1.10;;
11735;SDS011;5924;51.398;7.088;2022-10-16T10:01:54;0.90;;;0.80;;
11735;SDS011;5924;51.398;7.088;2022-10-16T10:04:21;1.33;;;0.90;;
11735;SDS011;5924;51.398;7.088;2022-10-16T10:06:49;1.70;;;0.70;;
11735;SDS011;5924;51.398;7.088;2022-10-16T10:09:23;2.83;;;0.70;;
11735;SDS011;5924;51.398;7.088;2022-10-16T10:11:50;4.73;;;0.73;;
11735;SDS011;5924;51.398;7.088;2022-10-16T10:16:50;1.70;;;0.80;;
11735;SDS011;5924;51.398;7.088;2022-10-16T10:19:19;3.60;;;1.23;;
11735;SDS011;5924;51.398;7.088;2022-10-16T10:21:47;1.30;;;0.80;;
11735;SDS011;5924;51.398;7.088;2022-10-16T10:24:14;1.43;;;0.67;;
11735;SDS011;5924;51.398;7.088;2022-10-16T10:27:02;0.87;;;0.80;;
11735;SDS011;5924;51.398;7.088;2022-10-16T10:32:17;9.33;;;0.70;;
11735;SDS011;5924;51.398;7.088;2022-10-16T10:37:51;2.20;;;0.90;;
11735;SDS011;5924;51.398;7.088;2022-10-16T10:40:39;2.17;;;0.90;;
11735;SDS011;5924;51.398;7.088;2022-10-16T10:46:00;3.23;;;0.73;;
11735;SDS011;5924;51.398;7.088;2022-10-16T10:48:35;0.60;;;0.60;;
11735;SDS011;5924;51.398;7.088;2022-10-16T10:51:28;2.30;;;0.60;;
11735;SDS011;5924;51.398;7.088;2022-10-16T10:59:24;2.63;;;0.87;;
11735;SDS011;5924;51.398;7.088;2022-10-16T11:01:59;0.80;;;0.80;;
11735;SDS011;5924;51.398;7.088;2022-10-16T11:04:34;0.87;;;0.87;;
11735;SDS011;5924;51.398;7.088;2022-10-16T11:07:30;1.20;;;0.70;;
11735;SDS011;5924;51.398;7.088;2022-10-16T11:10:13;1.03;;;0.70;;
11735;SDS011;5924;51.398;7.088;2022-10-16T11:12:51;0.90;;;0.90;;
11735;SDS011;5924;51.398;7.088;2022-10-16T11:15:29;2.57;;;0.80;;
11735;SDS011;5924;51.398;7.088;2022-10-16T11:18:06;2.03;;;0.90;;
11735;SDS011;5924;51.398;7.088;2022-10-16T11:20:33;0.70;;;0.70;;
11735;SDS011;5924;51.398;7.088;2022-10-16T11:23:07;4.30;;;0.80;;
11735;SDS011;5924;51.398;7.088;2022-10-16T11:25:39;1.57;;;0.83;;
11735;SDS011;5924;51.398;7.088;2022-10-16T11:35:53;0.70;;;0.70;;
11735;SDS011;5924;51.398;7.088;2022-10-16T11:38:38;0.60;;;0.60;;
11735;SDS011;5924;51.398;7.088;2022-10-16T11:41:29;1.20;;;0.97;;
11735;SDS011;5924;51.398;7.088;2022-10-16T11:47:01;8.53;;;0.90;;
11735;SDS011;5924;51.398;7.088;2022-10-16T11:49:37;0.93;;;0.93;;
11735;SDS011;5924;51.398;7.088;2022-10-16T11:52:11;1.43;;;0.90;;
11735;SDS011;5924;51.398;7.088;2022-10-16T11:54:54;2.40;;;0.93;;
11735;SDS011;5924;51.398;7.088;2022-10-16T11:57:27;2.20;;;0.70;;
11735;SDS011;5924;51.398;7.088;2022-10-16T11:59:58;2.60;;;0.97;;
11735;SDS011;5924;51.398;7.088;2022-10-16T12:08:29;2.10;;;1.00;;
11735;SDS011;5924;51.398;7.088;2022-10-16T12:11:06;1.77;;;0.80;;
11735;SDS011;5924;51.398;7.088;2022-10-16T12:13:47;0.83;;;0.83;;
11735;SDS011;5924;51.398;7.088;2022-10-16T12:18:42;4.73;;;1.70;;
11735;SDS011;5924;51.398;7.088;2022-10-16T12:21:10;1.00;;;1.00;;
11735;SDS011;5924;51.398;7.088;2022-10-16T12:23:47;0.70;;;0.70;;
11735;SDS011;5924;51.398;7.088;2022-10-16T12:26:27;1.47;;;0.70;;
11735;SDS011;5924;51.398;7.088;2022-10-16T12:28:55;1.00;;;1.00;;
11735;SDS011;5924;51.398;7.088;2022-10-16T12:31:22;0.93;;;0.93;;
11735;SDS011;5924;51.398;7.088;2022-10-16T12:33:59;1.17;;;0.70;;
11735;SDS011;5924;51.398;7.088;2022-10-16T12:36:30;1.03;;;0.60;;
11735;SDS011;5924;51.398;7.088;2022-10-16T12:39:00;4.53;;;0.83;;
11735;SDS011;5924;51.398;7.088;2022-10-16T12:43:53;1.03;;;0.50;;
11735;SDS011;5924;51.398;7.088;2022-10-16T12:46:24;1.17;;;0.50;;
11735;SDS011;5924;51.398;7.088;2022-10-16T12:51:38;0.80;;;0.80;;
11735;SDS011;5924;51.398;7.088;2022-10-16T12:54:12;0.70;;;0.50;;
11735;SDS011;5924;51.398;7.088;2022-10-16T13:05:22;2.60;;;0.60;;
11735;SDS011;5924;51.398;7.088;2022-10-16T13:16:22;1.33;;;0.77;;
11735;SDS011;5924;51.398;7.088;2022-10-16T13:19:02;0.60;;;0.57;;
11735;SDS011;5924;51.398;7.088;2022-10-16T13:22:08;1.70;;;0.87;;
11735;SDS011;5924;51.398;7.088;2022-10-16T13:32:49;0.60;;;0.60;;
11735;SDS011;5924;51.398;7.088;2022-10-16T13:35:22;1.90;;;0.77;;
11735;SDS011;5924;51.398;7.088;2022-10-16T13:37:49;0.60;;;0.60;;
11735;SDS011;5924;51.398;7.088;2022-10-16T13:40:19;1.13;;;0.80;;
11735;SDS011;5924;51.398;7.088;2022-10-16T13:42:45;2.47;;;0.60;;
11735;SDS011;5924;51.398;7.088;2022-10-16T13:45:18;2.13;;;0.80;;
11735;SDS011;5924;51.398;7.088;2022-10-16T13:47:45;2.60;;;0.90;;
11735;SDS011;5924;51.398;7.088;2022-10-16T13:50:12;1.50;;;0.60;;
11735;SDS011;5924;51.398;7.088;2022-10-16T13:52:39;0.50;;;0.50;;
11735;SDS011;5924;51.398;7.088;2022-10-16T13:55:13;1.47;;;0.70;;
11735;SDS011;5924;51.398;7.088;2022-10-16T13:57:41;2.17;;;0.90;;
11735;SDS011;5924;51.398;7.088;2022-10-16T14:00:17;1.07;;;0.90;;
11735;SDS011;5924;51.398;7.088;2022-10-16T14:03:00;3.40;;;0.77;;
11735;SDS011;5924;51.398;7.088;2022-10-16T14:05:28;0.63;;;0.63;;
11735;SDS011;5924;51.398;7.088;2022-10-16T14:07:54;1.80;;;0.90;;
11735;SDS011;5924;51.398;7.088;2022-10-16T14:10:25;1.70;;;0.77;;
11735;SDS011;5924;51.398;7.088;2022-10-16T14:12:56;1.37;;;0.90;;
11735;SDS011;5924;51.398;7.088;2022-10-16T14:15:23;0.70;;;0.70;;
11735;SDS011;5924;51.398;7.088;2022-10-16T14:17:50;2.00;;;0.93;;
11735;SDS011;5924;51.398;7.088;2022-10-16T14:20:16;0.80;;;0.80;;
11735;SDS011;5924;51.398;7.088;2022-10-16T14:22:43;2.30;;;0.77;;
11735;SDS011;5924;51.398;7.088;2022-10-16T14:27:45;1.87;;;0.70;;
11735;SDS011;5924;51.398;7.088;2022-10-16T14:30:25;1.93;;;0.80;;
11735;SDS011;5924;51.398;7.088;2022-10-16T14:32:53;1.00;;;1.00;;
11735;SDS011;5924;51.398;7.088;2022-10-16T14:35:23;0.80;;;0.80;;
11735;SDS011;5924;51.398;7.088;2022-10-16T14:37:54;2.93;;;0.80;;
11735;SDS011;5924;51.398;7.088;2022-10-16T14:40:23;3.13;;;0.77;;
11735;SDS011;5924;51.398;7.088;2022-10-16T14:42:51;1.73;;;0.80;;
11735;SDS011;5924;51.398;7.088;2022-10-16T14:45:27;0.77;;;0.77;;
11735;SDS011;5924;51.398;7.088;2022-10-16T14:47:58;0.80;;;0.80;;
11735;SDS011;5924;51.398;7.088;2022-10-16T14:50:26;0.70;;;0.70;;
11735;SDS011;5924;51.398;7.088;2022-10-16T14:52:52;1.70;;;0.90;;
11735;SDS011;5924;51.398;7.088;2022-10-16T14:55:18;0.93;;;0.73;;
11735;SDS011;5924;51.398;7.088;2022-10-16T14:57:44;0.80;;;0.80;;
11735;SDS011;5924;51.398;7.088;2022-10-16T15:00:22;0.80;;;0.80;;
11735;SDS011;5924;51.398;7.088;2022-10-16T15:02:49;0.73;;;0.73;;
11735;SDS011;5924;51.398;7.088;2022-10-16T15:05:22;0.97;;;0.97;;
11735;SDS011;5924;51.398;7.088;2022-10-16T15:07:51;2.20;;;0.90;;
11735;SDS011;5924;51.398;7.088;2022-10-16T15:10:18;1.10;;;1.00;;
11735;SDS011;5924;51.398;7.088;2022-10-16T15:12:46;0.80;;;0.80;;
11735;SDS011;5924;51.398;7.088;2022-10-16T15:15:20;1.10;;;1.00;;
11735;SDS011;5924;51.398;7.088;2022-10-16T15:17:53;0.90;;;0.90;;
11735;SDS011;5924;51.398;7.088;2022-10-16T15:20:26;0.90;;;0.90;;
11735;SDS011;5924;51.398;7.088;2022-10-16T15:22:52;0.90;;;0.90;;
11735;SDS011;5924;51.398;7.088;2022-10-16T15:28:07;0.90;;;0.90;;
11735;SDS011;5924;51.398;7.088;2022-10-16T15:30:34;1.00;;;0.90;;
11735;SDS011;5924;51.398;7.088;2022-10-16T15:33:01;2.97;;;0.97;;
11735;SDS011;5924;51.398;7.088;2022-10-16T15:35:27;0.83;;;0.83;;
11735;SDS011;5924;51.398;7.088;2022-10-16T15:37:53;1.00;;;1.00;;
11735;SDS011;5924;51.398;7.088;2022-10-16T15:40:19;0.90;;;0.90;;
11735;SDS011;5924;51.398;7.088;2022-10-16T15:42:46;1.00;;;1.00;;
11735;SDS011;5924;51.398;7.088;2022-10-16T15:45:12;1.40;;;1.40;;
11735;SDS011;5924;51.398;7.088;2022-10-16T15:47:38;0.90;;;0.90;;
11735;SDS011;5924;51.398;7.088;2022-10-16T15:50:05;1.70;;;1.60;;
11735;SDS011;5924;51.398;7.088;2022-10-16T15:52:31;8.33;;;2.43;;
11735;SDS011;5924;51.398;7.088;2022-10-16T15:54:57;2.00;;;2.00;;
11735;SDS011;5924;51.398;7.088;2022-10-16T15:57:23;2.23;;;2.13;;
11735;SDS011;5924;51.398;7.088;2022-10-16T15:59:49;2.23;;;2.13;;
11735;SDS011;5924;51.398;7.088;2022-10-16T16:02:15;1.80;;;1.80;;
11735;SDS011;5924;51.398;7.088;2022-10-16T16:04:41;1.50;;;1.50;;
11735;SDS011;5924;51.398;7.088;2022-10-16T16:07:07;1.40;;;1.40;;
11735;SDS011;5924;51.398;7.088;2022-10-16T16:09:32;1.40;;;1.30;;
11735;SDS011;5924;51.398;7.088;2022-10-16T16:11:58;2.30;;;2.20;;
11735;SDS011;5924;51.398;7.088;2022-10-16T16:14:27;3.30;;;3.10;;
11735;SDS011;5924;51.398;7.088;2022-10-16T16:16:53;2.97;;;2.47;;
11735;SDS011;5924;51.398;7.088;2022-10-16T16:19:20;2.80;;;2.80;;
11735;SDS011;5924;51.398;7.088;2022-10-16T16:21:46;2.37;;;2.37;;
11735;SDS011;5924;51.398;7.088;2022-10-16T16:24:12;3.00;;;2.90;;
11735;SDS011;5924;51.398;7.088;2022-10-16T16:26:38;3.30;;;3.10;;
11735;SDS011;5924;51.398;7.088;2022-10-16T16:29:08;2.57;;;2.50;;
11735;SDS011;5924;51.398;7.088;2022-10-16T16:31:37;4.03;;;2.30;;
11735;SDS011;5924;51.398;7.088;2022-10-16T16:34:02;2.70;;;2.70;;
11735;SDS011;5924;51.398;7.088;2022-10-16T16:36:28;2.67;;;2.57;;
11735;SDS011;5924;51.398;7.088;2022-10-16T16:38:54;2.33;;;2.33;;
11735;SDS011;5924;51.398;7.088;2022-10-16T16:41:21;4.53;;;2.23;;
11735;SDS011;5924;51.398;7.088;2022-10-16T16:43:52;2.23;;;2.23;;
11735;SDS011;5924;51.398;7.088;2022-10-16T16:46:19;2.00;;;2.00;;
11735;SDS011;5924;51.398;7.088;2022-10-16T16:48:46;1.57;;;1.57;;
11735;SDS011;5924;51.398;7.088;2022-10-16T16:51:15;2.67;;;2.23;;
11735;SDS011;5924;51.398;7.088;2022-10-16T16:53:43;1.90;;;1.80;;
11735;SDS011;5924;51.398;7.088;2022-10-16T16:56:14;2.13;;;2.03;;
11735;SDS011;5924;51.398;7.088;2022-10-16T16:58:40;2.13;;;2.13;;
11735;SDS011;5924;51.398;7.088;2022-10-16T17:01:06;2.37;;;2.37;;
11735;SDS011;5924;51.398;7.088;2022-10-16T17:03:34;2.97;;;2.77;;